Pagina principale
METAR-TAF:

METAR-TAF

Aeroporti :

Batman, Turchia

latitudine: 37-52N, longitudine: 041-10E, altezza: 540 m

Osservazione

Il bollettino è stato emesso 38 minuti fa, alle 05:20 UTC
Vento 2 kt da direzioni variabili
Temperature 2°C
Umidità 80%
Pressione 1025 hPa
Visibilità 10 km o più
nessuna nube inferiore a 1500 m e nessun cumulonembo

METAR: LTCJ 180520Z VRB02KT CAVOK 02/M01 Q1025 RMK RWY20 07003KT 030V130

Ora: 08:58 (05:58 UTC)

Previsione

Il bollettino è stato emesso 1 ora e 18 minuti fa, alle 04:40 UTC
Previsione valida dal 18 alle 06 UTC al 19 alle 06 UTC
Vento 2 kt da direzioni variabili
Visibilità 10 km o più
nessuna nube inferiore a 1500 m e nessun cumulonembo

TAF: LTCJ 180440Z 1806/1906 VRB02KT CAVOK

Osservazioni e previsioni meteorologiche di più di 4000 aeroporti (messaggi METAR e TAF).

Le stazioni disponibili sono rappresentate dai dischi gialli e rossi sulla carta.

Puntare il mouse per vedere il nome della stazione.

Clicca sopra per visualizzare le osservazioni e previsioni meteorologiche.

Per cambiare la mappa : fare clic sui pulsanti verdi con una croce nera per ingrandire, il pulsante verde con un trattino per diminuire, o sulla freccia verde per le mappe adiacenti.


METAR-TAF: